createdAt,value
2022-12-15T00:00:02.307Z,998.50
2022-12-15T00:01:02.344Z,998.52
2022-12-15T00:02:02.260Z,998.50
2022-12-15T00:03:02.392Z,998.52
2022-12-15T00:04:02.462Z,998.53
2022-12-15T00:05:02.266Z,998.58
2022-12-15T00:06:02.246Z,998.58
2022-12-15T00:07:02.281Z,998.59
2022-12-15T00:08:02.216Z,998.60
2022-12-15T00:09:02.183Z,998.59
2022-12-15T00:10:02.174Z,998.57
2022-12-15T00:11:02.162Z,998.57
2022-12-15T00:12:02.153Z,998.54
2022-12-15T00:13:02.162Z,998.57
2022-12-15T00:14:02.130Z,998.56
2022-12-15T00:15:02.121Z,998.62
2022-12-15T00:16:02.135Z,998.53
2022-12-15T00:17:02.103Z,998.57
2022-12-15T00:18:02.119Z,998.54
2022-12-15T00:19:02.082Z,998.54
2022-12-15T00:20:02.066Z,998.50
2022-12-15T00:21:02.062Z,998.57
2022-12-15T00:22:02.041Z,998.63
2022-12-15T00:23:02.055Z,998.59
2022-12-15T00:24:02.040Z,998.61
2022-12-15T00:25:02.017Z,998.57
2022-12-15T00:26:02.004Z,998.61
2022-12-15T00:27:02.002Z,998.61
2022-12-15T00:28:02.001Z,998.63
2022-12-15T00:29:01.968Z,998.65
2022-12-15T00:30:01.959Z,998.66
2022-12-15T00:31:02.657Z,998.65
2022-12-15T00:32:01.986Z,998.65
2022-12-15T00:33:01.949Z,998.63
2022-12-15T00:34:01.935Z,998.66
2022-12-15T00:35:01.914Z,998.61
2022-12-15T00:36:01.891Z,998.68
2022-12-15T00:37:01.882Z,998.60
2022-12-15T00:38:01.889Z,998.64
2022-12-15T00:39:03.951Z,998.65
2022-12-15T00:40:01.841Z,998.68
2022-12-15T00:41:01.860Z,998.72
2022-12-15T00:42:01.843Z,998.67
2022-12-15T00:43:01.839Z,998.68
2022-12-15T00:44:01.798Z,998.68
2022-12-15T00:45:01.813Z,998.70
2022-12-15T00:46:01.866Z,998.69
2022-12-15T00:47:01.850Z,998.68
2022-12-15T00:48:01.800Z,998.71
2022-12-15T00:49:01.759Z,998.75
2022-12-15T00:50:01.804Z,998.75
2022-12-15T00:51:01.729Z,998.74
2022-12-15T00:52:01.716Z,998.73
2022-12-15T00:53:01.725Z,998.76
2022-12-15T00:54:01.690Z,998.77
2022-12-15T00:55:01.717Z,998.70
2022-12-15T00:56:01.669Z,998.73
2022-12-15T00:57:01.662Z,998.79
2022-12-15T00:58:01.671Z,998.74
2022-12-15T00:59:01.639Z,998.66
2022-12-15T01:00:01.635Z,998.68
2022-12-15T01:01:01.621Z,998.70
2022-12-15T01:02:01.696Z,998.67
2022-12-15T01:03:01.867Z,998.62
2022-12-15T01:04:01.610Z,998.64
2022-12-15T01:05:01.601Z,998.62
2022-12-15T01:06:01.566Z,998.65
2022-12-15T01:07:01.556Z,998.62
2022-12-15T01:08:01.577Z,998.66
2022-12-15T01:09:01.533Z,998.69
2022-12-15T01:10:01.520Z,998.71
2022-12-15T01:11:01.530Z,998.70
2022-12-15T01:12:01.520Z,998.72
2022-12-15T01:13:01.502Z,998.70
2022-12-15T01:14:01.481Z,998.72
2022-12-15T01:15:01.461Z,998.73
2022-12-15T01:16:01.585Z,998.68
2022-12-15T01:17:01.437Z,998.71
2022-12-15T01:18:01.458Z,998.67
2022-12-15T01:19:01.426Z,998.69
2022-12-15T01:20:01.415Z,998.72
2022-12-15T01:21:01.404Z,998.68
2022-12-15T01:22:01.408Z,998.73
2022-12-15T01:23:01.442Z,998.72
2022-12-15T01:24:01.376Z,998.74
2022-12-15T01:25:01.352Z,998.72
2022-12-15T01:26:01.346Z,998.71
2022-12-15T01:27:01.331Z,998.74
2022-12-15T01:28:01.345Z,998.72
2022-12-15T01:29:01.307Z,998.75
2022-12-15T01:30:01.301Z,998.80
2022-12-15T01:31:01.338Z,998.76
2022-12-15T01:32:01.316Z,998.79
2022-12-15T01:33:01.284Z,998.76
2022-12-15T01:34:01.279Z,998.80
2022-12-15T01:35:01.312Z,998.85
2022-12-15T01:36:01.244Z,998.87
2022-12-15T01:37:01.249Z,998.83
2022-12-15T01:38:01.215Z,998.85
2022-12-15T01:39:01.240Z,998.83
2022-12-15T01:40:01.213Z,998.89
2022-12-15T01:41:01.176Z,998.82
2022-12-15T01:42:01.178Z,998.86
2022-12-15T01:43:01.165Z,998.86
2022-12-15T01:44:01.170Z,998.86
2022-12-15T01:45:01.147Z,998.89
2022-12-15T01:46:01.123Z,998.86
2022-12-15T01:47:01.245Z,998.92
2022-12-15T01:48:01.109Z,998.90
2022-12-15T01:49:01.122Z,998.93
2022-12-15T01:50:01.087Z,998.92
2022-12-15T01:51:01.078Z,998.93
2022-12-15T01:52:01.074Z,998.89
2022-12-15T01:53:01.052Z,998.91
2022-12-15T01:54:01.060Z,998.88
2022-12-15T01:55:01.031Z,998.90
2022-12-15T01:56:01.083Z,998.97
2022-12-15T01:57:01.008Z,998.95
2022-12-15T01:58:00.996Z,998.98
2022-12-15T01:59:01.014Z,998.94
2022-12-15T02:00:00.975Z,999.01
2022-12-15T02:01:01.015Z,999.02
2022-12-15T02:02:01.040Z,999.01
2022-12-15T02:03:01.138Z,999.02
2022-12-15T02:04:00.931Z,999.03
2022-12-15T02:05:00.943Z,999.00
2022-12-15T02:06:00.905Z,998.99
2022-12-15T02:07:00.900Z,998.95
2022-12-15T02:08:00.886Z,998.97
2022-12-15T02:09:00.880Z,998.97
2022-12-15T02:10:00.894Z,999.03
2022-12-15T02:11:00.861Z,998.99
2022-12-15T02:12:00.848Z,999.03
2022-12-15T02:13:00.832Z,999.05
2022-12-15T02:14:00.834Z,999.03
2022-12-15T02:15:00.854Z,999.09
2022-12-15T02:16:00.854Z,999.10
2022-12-15T02:17:00.795Z,999.15
2022-12-15T02:18:00.783Z,999.07
2022-12-15T02:19:00.776Z,999.09
2022-12-15T02:20:00.760Z,999.08
2022-12-15T02:21:01.130Z,999.11
2022-12-15T02:22:00.734Z,999.08
2022-12-15T02:23:00.728Z,999.05
2022-12-15T02:24:00.718Z,999.07
2022-12-15T02:25:00.711Z,999.09
2022-12-15T02:26:00.694Z,999.10
2022-12-15T02:27:00.715Z,999.08
2022-12-15T02:28:00.679Z,999.09
2022-12-15T02:29:00.666Z,999.20
2022-12-15T02:30:00.650Z,999.12
2022-12-15T02:31:00.645Z,999.13
2022-12-15T02:32:00.722Z,999.18
2022-12-15T02:33:00.642Z,999.19
2022-12-15T02:34:00.613Z,999.18
2022-12-15T02:35:00.600Z,999.25
2022-12-15T02:36:00.626Z,999.21
2022-12-15T02:37:00.584Z,999.29
2022-12-15T02:38:00.596Z,999.28
2022-12-15T02:39:01.473Z,999.27
2022-12-15T02:40:00.541Z,999.23
2022-12-15T02:41:00.533Z,999.27
2022-12-15T02:42:00.557Z,999.18
2022-12-15T02:43:00.516Z,999.26
2022-12-15T02:44:00.523Z,999.28
2022-12-15T02:45:00.492Z,999.30
2022-12-15T02:46:00.525Z,999.28
2022-12-15T02:47:00.481Z,999.24
2022-12-15T02:48:00.456Z,999.28
2022-12-15T02:49:00.446Z,999.29
2022-12-15T02:50:00.457Z,999.27
2022-12-15T02:51:00.456Z,999.30
2022-12-15T02:52:00.412Z,999.28
2022-12-15T02:53:00.405Z,999.29
2022-12-15T02:54:00.411Z,999.27
2022-12-15T02:55:00.405Z,999.24
2022-12-15T02:56:00.371Z,999.20
2022-12-15T02:57:00.375Z,999.30
2022-12-15T02:58:00.369Z,999.20
2022-12-15T02:59:00.347Z,999.21
2022-12-15T03:00:00.326Z,999.28
2022-12-15T03:01:00.397Z,999.31
2022-12-15T03:02:00.550Z,999.34
2022-12-15T03:03:00.545Z,999.40
2022-12-15T03:04:00.285Z,999.35
2022-12-15T03:05:00.316Z,999.36
2022-12-15T03:06:00.261Z,999.36
2022-12-15T03:07:01.396Z,999.37
2022-12-15T03:08:00.240Z,999.34
2022-12-15T03:09:00.233Z,999.37
2022-12-15T03:10:00.224Z,999.30
2022-12-15T03:11:00.207Z,999.35
2022-12-15T03:12:00.203Z,999.35
2022-12-15T03:13:00.206Z,999.37
2022-12-15T03:14:00.177Z,999.37
2022-12-15T03:15:00.165Z,999.34
2022-12-15T03:16:00.216Z,999.36
2022-12-15T03:17:00.222Z,999.40
2022-12-15T03:18:00.142Z,999.42
2022-12-15T03:19:00.246Z,999.39
2022-12-15T03:20:00.160Z,999.40
2022-12-15T03:21:00.108Z,999.40
2022-12-15T03:22:00.129Z,999.37
2022-12-15T03:23:00.080Z,999.43
2022-12-15T03:24:00.109Z,999.42
2022-12-15T03:25:00.068Z,999.40
2022-12-15T03:26:00.044Z,999.41
2022-12-15T03:27:00.033Z,999.45
2022-12-15T03:28:00.029Z,999.46
2022-12-15T03:29:00.006Z,999.49
2022-12-15T03:30:00.026Z,999.48
2022-12-15T03:30:59.985Z,999.55
2022-12-15T03:31:59.993Z,999.50
2022-12-15T03:32:59.966Z,999.48
2022-12-15T03:33:59.962Z,999.54
2022-12-15T03:34:59.944Z,999.52
2022-12-15T03:35:59.981Z,999.56
2022-12-15T03:36:59.923Z,999.58
2022-12-15T03:37:59.926Z,999.60
2022-12-15T03:38:59.911Z,999.57
2022-12-15T03:39:59.895Z,999.57
2022-12-15T03:40:59.877Z,999.60
2022-12-15T03:41:59.904Z,999.61
2022-12-15T03:42:59.856Z,999.65
2022-12-15T03:43:59.851Z,999.63
2022-12-15T03:44:59.836Z,999.67
2022-12-15T03:45:59.849Z,999.68
2022-12-15T03:47:03.163Z,999.66
2022-12-15T03:47:59.843Z,999.70
2022-12-15T03:48:59.793Z,999.65
2022-12-15T03:49:59.784Z,999.65
2022-12-15T03:50:59.771Z,999.69
2022-12-15T03:51:59.766Z,999.73
2022-12-15T03:52:59.748Z,999.70
2022-12-15T03:54:00.115Z,999.72
2022-12-15T03:54:59.723Z,999.74
2022-12-15T03:55:59.719Z,999.75
2022-12-15T03:56:59.704Z,999.72
2022-12-15T03:57:59.700Z,999.73
2022-12-15T03:58:59.687Z,999.77
2022-12-15T03:59:59.713Z,999.76
2022-12-15T04:00:59.700Z,999.77
2022-12-15T04:01:59.879Z,999.77
2022-12-15T04:02:59.840Z,999.74
2022-12-15T04:04:01.294Z,999.75
2022-12-15T04:04:59.619Z,999.80
2022-12-15T04:05:59.629Z,999.77
2022-12-15T04:06:59.594Z,999.75
2022-12-15T04:07:59.600Z,999.76
2022-12-15T04:08:59.576Z,999.72
2022-12-15T04:09:59.562Z,999.72
2022-12-15T04:10:59.559Z,999.75
2022-12-15T04:11:59.576Z,999.76
2022-12-15T04:12:59.533Z,999.72
2022-12-15T04:13:59.519Z,999.72
2022-12-15T04:14:59.512Z,999.73
2022-12-15T04:15:59.498Z,999.75
2022-12-15T04:16:59.636Z,999.82
2022-12-15T04:17:59.511Z,999.77
2022-12-15T04:18:59.471Z,999.83
2022-12-15T04:19:59.454Z,999.85
2022-12-15T04:20:59.451Z,999.85
2022-12-15T04:21:59.433Z,999.85
2022-12-15T04:22:59.426Z,999.83
2022-12-15T04:23:59.449Z,999.79
2022-12-15T04:24:59.405Z,999.78
2022-12-15T04:25:59.390Z,999.78
2022-12-15T04:26:59.382Z,999.85
2022-12-15T04:28:01.707Z,999.82
2022-12-15T04:28:59.388Z,999.81
2022-12-15T04:29:59.344Z,999.78
2022-12-15T04:30:59.374Z,999.84
2022-12-15T04:31:59.323Z,999.83
2022-12-15T04:32:59.323Z,999.83
2022-12-15T04:33:59.304Z,999.83
2022-12-15T04:34:59.328Z,999.84
2022-12-15T04:35:59.280Z,999.91
2022-12-15T04:36:59.292Z,999.90
2022-12-15T04:37:59.257Z,999.88
2022-12-15T04:38:59.252Z,999.88
2022-12-15T04:39:59.241Z,999.87
2022-12-15T04:40:59.255Z,999.91
2022-12-15T04:41:59.215Z,999.97
2022-12-15T04:42:59.208Z,999.96
2022-12-15T04:43:59.212Z,999.95
2022-12-15T04:44:59.193Z,999.91
2022-12-15T04:45:59.244Z,999.93
2022-12-15T04:46:59.175Z,999.94
2022-12-15T04:47:59.212Z,999.96
2022-12-15T04:48:59.160Z,999.98
2022-12-15T04:49:59.142Z,1000.02
2022-12-15T04:50:59.189Z,1000.02
2022-12-15T04:51:59.149Z,1000.00
2022-12-15T04:52:59.126Z,999.97
2022-12-15T04:53:59.106Z,1000.05
2022-12-15T04:54:59.082Z,1000.01
2022-12-15T04:55:59.111Z,1000.04
2022-12-15T04:56:59.059Z,1000.03
2022-12-15T04:57:59.043Z,1000.07
2022-12-15T04:58:59.036Z,1000.09
2022-12-15T04:59:59.150Z,1000.08
2022-12-15T05:00:59.160Z,1000.08
2022-12-15T05:01:59.097Z,1000.13
2022-12-15T05:02:58.992Z,1000.13
2022-12-15T05:03:59.022Z,1000.15
2022-12-15T05:04:58.970Z,1000.18
2022-12-15T05:05:58.974Z,1000.22
2022-12-15T05:06:58.950Z,1000.23
2022-12-15T05:07:58.931Z,1000.22
2022-12-15T05:08:58.924Z,1000.17
2022-12-15T05:10:02.947Z,1000.21
2022-12-15T05:10:58.919Z,1000.22
2022-12-15T05:11:58.898Z,1000.19
2022-12-15T05:12:58.875Z,1000.22
2022-12-15T05:13:58.871Z,1000.21
2022-12-15T05:14:58.856Z,1000.20
2022-12-15T05:15:59.009Z,1000.22
2022-12-15T05:16:58.856Z,1000.17
2022-12-15T05:17:58.828Z,1000.17
2022-12-15T05:18:58.813Z,1000.20
2022-12-15T05:19:58.809Z,1000.20
2022-12-15T05:20:58.821Z,1000.17
2022-12-15T05:21:58.784Z,1000.15
2022-12-15T05:22:58.767Z,1000.16
2022-12-15T05:23:58.761Z,1000.16
2022-12-15T05:24:58.750Z,1000.11
2022-12-15T05:25:58.779Z,1000.04
2022-12-15T05:26:58.723Z,1000.15
2022-12-15T05:27:58.723Z,1000.12
2022-12-15T05:28:58.701Z,1000.18
2022-12-15T05:29:58.701Z,1000.17
2022-12-15T05:30:58.765Z,1000.23
2022-12-15T05:31:58.672Z,1000.24
2022-12-15T05:32:58.660Z,1000.28
2022-12-15T05:34:04.745Z,1000.25
2022-12-15T05:34:58.647Z,1000.23
2022-12-15T05:35:58.657Z,1000.27
2022-12-15T05:36:58.622Z,1000.21
2022-12-15T05:37:58.609Z,1000.23
2022-12-15T05:38:58.595Z,1000.22
2022-12-15T05:39:58.589Z,1000.20
2022-12-15T05:40:58.574Z,1000.14
2022-12-15T05:41:58.599Z,1000.15
2022-12-15T05:42:58.550Z,1000.20
2022-12-15T05:43:58.543Z,1000.12
2022-12-15T05:44:58.529Z,1000.10
2022-12-15T05:45:58.541Z,1000.15
2022-12-15T05:46:58.504Z,1000.15
2022-12-15T05:47:58.527Z,1000.18
2022-12-15T05:48:58.485Z,1000.23
2022-12-15T05:49:58.477Z,1000.31
2022-12-15T05:50:58.463Z,1000.33
2022-12-15T05:51:58.465Z,1000.31
2022-12-15T05:52:58.443Z,1000.37
2022-12-15T05:53:58.462Z,1000.36
2022-12-15T05:54:58.421Z,1000.34
2022-12-15T05:55:58.416Z,1000.36
2022-12-15T05:56:58.399Z,1000.39
2022-12-15T05:57:58.387Z,1000.34
2022-12-15T05:58:58.409Z,1000.35
2022-12-15T05:59:58.400Z,1000.38
2022-12-15T06:00:58.355Z,1000.44
2022-12-15T06:01:58.423Z,1000.43
2022-12-15T06:02:58.384Z,1000.47
2022-12-15T06:03:58.323Z,1000.46
2022-12-15T06:04:58.368Z,1000.50
2022-12-15T06:05:58.505Z,1000.52
2022-12-15T06:06:58.293Z,1000.53
2022-12-15T06:07:58.275Z,1000.53
2022-12-15T06:08:58.275Z,1000.54
2022-12-15T06:09:58.261Z,1000.55
2022-12-15T06:10:58.242Z,1000.56
2022-12-15T06:11:58.265Z,1000.55
2022-12-15T06:12:58.251Z,1000.58
2022-12-15T06:13:58.216Z,1000.63
2022-12-15T06:14:58.203Z,1000.56
2022-12-15T06:15:58.251Z,1000.61
2022-12-15T06:16:58.242Z,1000.58
2022-12-15T06:17:58.205Z,1000.58
2022-12-15T06:18:58.182Z,1000.61
2022-12-15T06:19:58.153Z,1000.64
2022-12-15T06:20:58.186Z,1000.65
2022-12-15T06:21:58.142Z,1000.66
2022-12-15T06:22:58.114Z,1000.69
2022-12-15T06:23:58.136Z,1000.64
2022-12-15T06:24:58.095Z,1000.63
2022-12-15T06:25:58.088Z,1000.68
2022-12-15T06:26:58.069Z,1000.68
2022-12-15T06:28:01.716Z,1000.67
2022-12-15T06:28:58.050Z,1000.65
2022-12-15T06:29:58.097Z,1000.66
2022-12-15T06:30:58.068Z,1000.70
2022-12-15T06:31:58.033Z,1000.70
2022-12-15T06:32:58.002Z,1000.68
2022-12-15T06:34:01.999Z,1000.69
2022-12-15T06:34:58.010Z,1000.69
2022-12-15T06:35:57.976Z,1000.67
2022-12-15T06:36:57.961Z,1000.65
2022-12-15T06:37:57.955Z,1000.71
2022-12-15T06:38:57.946Z,1000.65
2022-12-15T06:39:57.932Z,1000.62
2022-12-15T06:40:57.949Z,1000.63
2022-12-15T06:41:57.915Z,1000.70
2022-12-15T06:42:57.894Z,1000.65
2022-12-15T06:43:57.894Z,1000.63
2022-12-15T06:44:57.871Z,1000.64
2022-12-15T06:45:57.867Z,1000.64
2022-12-15T06:46:57.930Z,1000.68
2022-12-15T06:48:01.333Z,1000.67
2022-12-15T06:48:57.831Z,1000.71
2022-12-15T06:49:57.823Z,1000.67
2022-12-15T06:50:57.806Z,1000.65
2022-12-15T06:51:57.802Z,1000.67
2022-12-15T06:52:57.810Z,1000.67
2022-12-15T06:53:57.775Z,1000.64
2022-12-15T06:54:57.787Z,1000.63
2022-12-15T06:55:57.754Z,1000.65
2022-12-15T06:56:57.745Z,1000.65
2022-12-15T06:57:57.741Z,1000.64
2022-12-15T06:58:57.744Z,1000.65
2022-12-15T06:59:57.714Z,1000.66
2022-12-15T07:00:57.702Z,1000.71
2022-12-15T07:01:57.856Z,1000.71
2022-12-15T07:02:57.864Z,1000.70
2022-12-15T07:03:57.857Z,1000.71
2022-12-15T07:04:57.684Z,1000.72
2022-12-15T07:05:57.650Z,1000.67
2022-12-15T07:06:57.633Z,1000.75
2022-12-15T07:07:57.773Z,1000.72
2022-12-15T07:08:57.619Z,1000.69
2022-12-15T07:09:57.599Z,1000.69
2022-12-15T07:10:57.978Z,1000.67
2022-12-15T07:11:57.583Z,1000.70
2022-12-15T07:12:57.570Z,1000.68
2022-12-15T07:13:57.583Z,1000.65
2022-12-15T07:14:57.550Z,1000.69
2022-12-15T07:15:57.564Z,1000.70
2022-12-15T07:16:57.549Z,1000.70
2022-12-15T07:17:57.512Z,1000.73
2022-12-15T07:18:57.505Z,1000.70
2022-12-15T07:19:57.492Z,1000.81
2022-12-15T07:20:57.484Z,1000.78
2022-12-15T07:21:57.511Z,1000.85
2022-12-15T07:22:57.460Z,1000.83
2022-12-15T07:23:58.230Z,1000.87
2022-12-15T07:24:57.443Z,1000.88
2022-12-15T07:25:57.429Z,1000.86
2022-12-15T07:26:57.421Z,1000.86
2022-12-15T07:27:57.435Z,1000.87
2022-12-15T07:28:57.400Z,1000.88
2022-12-15T07:29:57.394Z,1000.91
2022-12-15T07:30:57.378Z,1000.97
2022-12-15T07:31:57.436Z,1000.95
2022-12-15T07:32:57.354Z,1000.97
2022-12-15T07:33:57.360Z,1000.94
2022-12-15T07:34:57.338Z,1000.98
2022-12-15T07:35:57.324Z,1000.98
2022-12-15T07:36:57.310Z,1000.97
2022-12-15T07:37:57.291Z,1000.98
2022-12-15T07:38:57.317Z,1000.99
2022-12-15T07:39:57.275Z,1001.02
2022-12-15T07:40:57.267Z,1001.01
2022-12-15T07:41:57.251Z,1001.03
2022-12-15T07:42:57.248Z,1001.03
2022-12-15T07:43:57.230Z,1001.05
2022-12-15T07:44:57.258Z,1001.08
2022-12-15T07:45:57.237Z,1001.06
2022-12-15T07:46:57.201Z,1001.12
2022-12-15T07:47:57.188Z,1001.17
2022-12-15T07:48:57.180Z,1001.12
2022-12-15T07:49:57.197Z,1001.13
2022-12-15T07:51:02.762Z,1001.15
2022-12-15T07:51:57.146Z,1001.18
2022-12-15T07:52:57.137Z,1001.20
2022-12-15T07:53:57.123Z,1001.22
2022-12-15T07:54:57.118Z,1001.24
2022-12-15T07:56:07.364Z,1001.24
2022-12-15T07:56:57.107Z,1001.27
2022-12-15T07:57:57.078Z,1001.27
2022-12-15T07:58:57.075Z,1001.25
2022-12-15T07:59:57.094Z,1001.31
2022-12-15T08:00:57.076Z,1001.30
2022-12-15T08:01:57.218Z,1001.27
2022-12-15T08:02:57.247Z,1001.33
2022-12-15T08:03:57.074Z,1001.34
2022-12-15T08:04:57.024Z,1001.33
2022-12-15T08:06:03.641Z,1001.36
2022-12-15T08:06:57.011Z,1001.31
2022-12-15T08:07:56.971Z,1001.32
2022-12-15T08:08:56.964Z,1001.33
2022-12-15T08:09:56.950Z,1001.31
2022-12-15T08:10:56.936Z,1001.35
2022-12-15T08:11:56.952Z,1001.33
2022-12-15T08:12:56.915Z,1001.33
2022-12-15T08:14:07.767Z,1001.36
2022-12-15T08:14:56.900Z,1001.41
2022-12-15T08:15:57.064Z,1001.40
2022-12-15T08:16:56.959Z,1001.41
2022-12-15T08:17:56.866Z,1001.37
2022-12-15T08:18:56.846Z,1001.41
2022-12-15T08:19:58.920Z,1001.40
2022-12-15T08:20:56.825Z,1001.43
2022-12-15T08:21:56.839Z,1001.42
2022-12-15T08:22:56.802Z,1001.46
2022-12-15T08:23:56.794Z,1001.44
2022-12-15T08:24:56.781Z,1001.50
2022-12-15T08:25:56.775Z,1001.45
2022-12-15T08:26:56.795Z,1001.53
2022-12-15T08:27:56.783Z,1001.52
2022-12-15T08:28:57.118Z,1001.50
2022-12-15T08:29:56.737Z,1001.54
2022-12-15T08:30:56.740Z,1001.48
2022-12-15T08:31:56.809Z,1001.58
2022-12-15T08:32:56.731Z,1001.54
2022-12-15T08:33:56.689Z,1001.56
2022-12-15T08:34:56.672Z,1001.56
2022-12-15T08:35:57.378Z,1001.55
2022-12-15T08:36:56.680Z,1001.52
2022-12-15T08:37:59.854Z,1001.55
2022-12-15T08:38:56.657Z,1001.54
2022-12-15T08:39:56.622Z,1001.57
2022-12-15T08:40:56.616Z,1001.58
2022-12-15T08:41:56.602Z,1001.58
2022-12-15T08:42:56.586Z,1001.60
2022-12-15T08:43:56.609Z,1001.64
2022-12-15T08:44:56.568Z,1001.65
2022-12-15T08:45:56.591Z,1001.63
2022-12-15T08:46:56.540Z,1001.63
2022-12-15T08:47:56.542Z,1001.66
2022-12-15T08:48:56.525Z,1001.68
2022-12-15T08:49:56.536Z,1001.67
2022-12-15T08:50:56.500Z,1001.58
2022-12-15T08:51:56.495Z,1001.63
2022-12-15T08:53:28.960Z,1001.59
2022-12-15T08:53:56.504Z,1001.61
2022-12-15T08:54:56.577Z,1001.66
2022-12-15T08:55:56.457Z,1001.60
2022-12-15T08:56:56.445Z,1001.60
2022-12-15T08:57:56.507Z,1001.60
2022-12-15T08:58:56.424Z,1001.61
2022-12-15T08:59:56.459Z,1001.58
2022-12-15T09:00:56.494Z,1001.57
2022-12-15T09:01:56.517Z,1001.61
2022-12-15T09:02:56.395Z,1001.62
2022-12-15T09:03:56.434Z,1001.65
2022-12-15T09:04:56.368Z,1001.68
2022-12-15T09:05:56.416Z,1001.61
2022-12-15T09:06:56.407Z,1001.63
2022-12-15T09:07:59.354Z,1001.66
2022-12-15T09:08:56.326Z,1001.73
2022-12-15T09:09:56.294Z,1001.72
2022-12-15T09:10:56.355Z,1001.71
2022-12-15T09:11:56.342Z,1001.78
2022-12-15T09:12:56.309Z,1001.81
2022-12-15T09:13:56.280Z,1001.79
2022-12-15T09:14:56.308Z,1001.78
2022-12-15T09:16:11.856Z,1001.76
2022-12-15T09:16:56.426Z,1001.75
2022-12-15T09:17:56.213Z,1001.75
2022-12-15T09:18:56.207Z,1001.78
2022-12-15T09:19:56.273Z,1001.74
2022-12-15T09:20:56.181Z,1001.74
2022-12-15T09:21:56.208Z,1001.77
2022-12-15T09:22:56.184Z,1001.77
2022-12-15T09:23:56.139Z,1001.83
2022-12-15T09:24:56.133Z,1001.75
2022-12-15T09:25:56.119Z,1001.81
2022-12-15T09:26:56.200Z,1001.79
2022-12-15T09:27:56.115Z,1001.79
2022-12-15T09:28:56.089Z,1001.77
2022-12-15T09:29:56.074Z,1001.74
2022-12-15T09:30:56.107Z,1001.75
2022-12-15T09:31:56.052Z,1001.77
2022-12-15T09:32:56.065Z,1001.86
2022-12-15T09:33:56.029Z,1001.83
2022-12-15T09:34:56.030Z,1001.86
2022-12-15T09:35:56.008Z,1001.88
2022-12-15T09:36:56.010Z,1001.90
2022-12-15T09:37:55.989Z,1001.94
2022-12-15T09:38:56.007Z,1001.88
2022-12-15T09:39:55.964Z,1001.92
2022-12-15T09:40:55.958Z,1001.90
2022-12-15T09:41:55.946Z,1001.93
2022-12-15T09:43:25.816Z,1001.91
2022-12-15T09:43:56.632Z,1001.94
2022-12-15T09:44:55.937Z,1001.98
2022-12-15T09:45:55.932Z,1002.05
2022-12-15T09:46:55.890Z,1002.01
2022-12-15T09:47:55.878Z,1002.02
2022-12-15T09:48:55.869Z,1001.99
2022-12-15T09:49:55.880Z,1002.05
2022-12-15T09:50:55.848Z,1002.01
2022-12-15T09:51:55.829Z,1002.09
2022-12-15T09:52:55.822Z,1002.05
2022-12-15T09:53:56.730Z,1002.09
2022-12-15T09:54:55.884Z,1002.12
2022-12-15T09:55:55.788Z,1002.10
2022-12-15T09:56:55.778Z,1002.08
2022-12-15T09:57:55.766Z,1002.15
2022-12-15T09:58:55.757Z,1002.14
2022-12-15T09:59:55.777Z,1002.17
2022-12-15T10:00:55.898Z,1002.18
2022-12-15T10:01:55.777Z,1002.18
2022-12-15T10:02:55.934Z,1002.21
2022-12-15T10:03:55.769Z,1002.23
2022-12-15T10:04:55.706Z,1002.25
2022-12-15T10:06:55.678Z,1002.23
2022-12-15T10:07:55.654Z,1002.28
2022-12-15T10:08:55.643Z,1002.26
2022-12-15T10:09:55.629Z,1002.27
2022-12-15T10:10:55.623Z,1002.30
2022-12-15T10:11:55.635Z,1002.23
2022-12-15T10:13:02.022Z,1002.22
2022-12-15T10:13:55.593Z,1002.24
2022-12-15T10:14:55.578Z,1002.23
2022-12-15T10:15:55.634Z,1002.18
2022-12-15T10:16:56.013Z,1002.19
2022-12-15T10:17:55.553Z,1002.18
2022-12-15T10:18:59.372Z,1002.19
2022-12-15T10:19:55.542Z,1002.17
2022-12-15T10:20:55.518Z,1002.22
2022-12-15T10:21:55.509Z,1002.27
2022-12-15T10:22:55.528Z,1002.28
2022-12-15T10:23:55.546Z,1002.19
2022-12-15T10:25:11.621Z,1002.23
2022-12-15T10:25:55.461Z,1002.23
2022-12-15T10:26:55.453Z,1002.25
2022-12-15T10:27:55.457Z,1002.19
2022-12-15T10:28:55.428Z,1002.25
2022-12-15T10:29:55.467Z,1002.21
2022-12-15T10:30:55.436Z,1002.24
2022-12-15T10:31:55.389Z,1002.21
2022-12-15T10:32:55.406Z,1002.21
2022-12-15T10:33:55.374Z,1002.21
2022-12-15T10:34:55.394Z,1002.18
2022-12-15T10:35:55.351Z,1002.18
2022-12-15T10:36:55.344Z,1002.22
2022-12-15T10:37:55.358Z,1002.20
2022-12-15T10:38:55.323Z,1002.17
2022-12-15T10:39:55.302Z,1002.15
2022-12-15T10:40:55.296Z,1002.23
2022-12-15T10:41:55.282Z,1002.22
2022-12-15T10:42:55.274Z,1002.18
2022-12-15T10:43:55.277Z,1002.17
2022-12-15T10:44:55.252Z,1002.19
2022-12-15T10:45:55.288Z,1002.20
2022-12-15T10:46:55.242Z,1002.17
2022-12-15T10:47:55.212Z,1002.11
2022-12-15T10:48:55.229Z,1002.13
2022-12-15T10:49:55.194Z,1002.11
2022-12-15T10:50:55.185Z,1002.09
2022-12-15T10:51:55.172Z,1002.11
2022-12-15T10:52:55.160Z,1002.10
2022-12-15T10:53:55.171Z,1002.07
2022-12-15T10:54:55.135Z,1002.14
2022-12-15T10:55:55.122Z,1002.18
2022-12-15T10:56:55.141Z,1002.18
2022-12-15T10:57:55.097Z,1002.17
2022-12-15T10:58:55.124Z,1002.17
2022-12-15T10:59:55.081Z,1002.23
2022-12-15T11:00:55.136Z,1002.18
2022-12-15T11:01:55.260Z,1002.20
2022-12-15T11:02:55.220Z,1002.19
2022-12-15T11:03:55.336Z,1002.23
2022-12-15T11:04:55.047Z,1002.21
2022-12-15T11:05:55.011Z,1002.22
2022-12-15T11:06:55.006Z,1002.20
2022-12-15T11:07:54.990Z,1002.21
2022-12-15T11:08:54.981Z,1002.18
2022-12-15T11:09:55.030Z,1002.19
2022-12-15T11:10:54.953Z,1002.17
2022-12-15T11:11:54.948Z,1002.18
2022-12-15T11:12:58.578Z,1002.21
2022-12-15T11:13:54.953Z,1002.23
2022-12-15T11:14:55.052Z,1002.21
2022-12-15T11:15:55.216Z,1002.27
2022-12-15T11:16:54.887Z,1002.22
2022-12-15T11:17:54.890Z,1002.25
2022-12-15T11:18:54.869Z,1002.27
2022-12-15T11:20:01.929Z,1002.23
2022-12-15T11:20:54.869Z,1002.23
2022-12-15T11:21:54.844Z,1002.21
2022-12-15T11:22:54.858Z,1002.20
2022-12-15T11:23:54.836Z,1002.18
2022-12-15T11:24:54.794Z,1002.14
2022-12-15T11:25:54.816Z,1002.13
2022-12-15T11:26:54.778Z,1002.13
2022-12-15T11:27:54.811Z,1002.15
2022-12-15T11:28:54.754Z,1002.09
2022-12-15T11:29:54.746Z,1002.07
2022-12-15T11:30:54.755Z,1001.97
2022-12-15T11:31:54.732Z,1001.98
2022-12-15T11:32:55.084Z,1001.97
2022-12-15T11:33:54.714Z,1002.03
2022-12-15T11:34:54.686Z,1001.94
2022-12-15T11:35:54.703Z,1001.95
2022-12-15T11:36:54.664Z,1002.00
2022-12-15T11:37:54.660Z,1002.02
2022-12-15T11:38:54.710Z,1002.00
2022-12-15T11:39:54.634Z,1002.01
2022-12-15T11:40:54.646Z,1002.04
2022-12-15T11:41:54.614Z,1002.06
2022-12-15T11:42:54.846Z,1002.03
2022-12-15T11:43:54.633Z,1002.00
2022-12-15T11:44:54.576Z,1002.00
2022-12-15T11:45:54.605Z,1002.04
2022-12-15T11:46:54.554Z,1002.00
2022-12-15T11:47:54.549Z,1002.02
2022-12-15T11:48:54.540Z,1002.04
2022-12-15T11:49:54.529Z,1002.00
2022-12-15T11:50:54.508Z,1002.02
2022-12-15T11:51:54.520Z,1002.03
2022-12-15T11:52:54.526Z,1002.00
2022-12-15T11:53:54.480Z,1002.01
2022-12-15T11:54:54.480Z,1001.98
2022-12-15T11:55:54.460Z,1001.97
2022-12-15T11:56:54.473Z,1002.03
2022-12-15T11:57:54.435Z,1002.04
2022-12-15T11:58:54.421Z,1002.05
2022-12-15T11:59:54.414Z,1001.99
2022-12-15T12:00:54.399Z,1001.98
2022-12-15T12:02:02.434Z,1001.99
2022-12-15T12:02:54.452Z,1001.97
2022-12-15T12:03:54.370Z,1002.03
2022-12-15T12:04:54.352Z,1002.03
2022-12-15T12:05:54.348Z,1001.97
2022-12-15T12:06:54.330Z,1002.01
2022-12-15T12:07:54.369Z,1001.97
2022-12-15T12:08:54.321Z,1002.02
2022-12-15T12:09:54.298Z,1002.03
2022-12-15T12:10:54.325Z,1001.98
2022-12-15T12:11:54.276Z,1001.95
2022-12-15T12:12:54.269Z,1001.96
2022-12-15T12:13:54.280Z,1001.99
2022-12-15T12:14:54.253Z,1001.96